Kharga, Egypt
Current Conditions -  °F | °C
As of 2:00 PM on Friday 24 Oct 2014 (Local Time) from HESG Reporting Station
Clear Clear  
Wind Chill: 91°   Ceiling: Unl
Heat Index: 91°   Visibility: 6mi
Dew Point: 48°   Wind: 9mph
Humidity: 23%   Direction: 330°NNW
Pressure: 29.94"   Gusts: NA
Location:  25.48°N, 30.59°E
Report Text: HESG 241200Z 33008KT CAVOK 33/09 Q1014 NOSIG
Loading
Personal Weather Stations






























Interactive Weather Map
Tropical Storm Tracking
New forecast layout! Learn more

10-Day Weather Forecast

Advertisements
Track Severe Weather on mobile